Aristobulo del Valle, Argentina
Current Conditions -  °F | °C
As of 2:00 PM on Thursday 27 Nov 2014 (Local Time) from SARI Reporting Station
Scattered Clouds Scattered Clouds  
Wind Chill: 33°   Ceiling: Unl
Heat Index: 37°   Visibility: 6mi
Dew Point: 22°   Wind: 12mph
Humidity: 52%   Direction: 230°SW
Pressure: 29.85"   Gusts: NA
Location:  26.92°S, 54.35°W
Report Text: SARI 271700Z 23010KT 9999 SCT025 SCT200 33/22 Q1011
Loading
Personal Weather Stations






























Interactive Weather Map New forecast layout! Learn more

10-Day Weather Forecast

Advertisements
Track Severe Weather on mobile